This is the latest recevied weather packets stored in our database for station/object W4NRG-1. If no packets are shown the sender has not sent any weather packets the latest 1 day(s).
| Time | Temp. | Humidity | Pressure | Rain* | Wind** | Luminosity | Snow |
|---|---|---|---|---|---|---|---|
| 1778004176 | 27.78° C | 37% | 1013.6 hPa | 0 mm | 3.58 m/s, 70° | - | - |
| 1778003872 | 27.78° C | 39% | 1013.6 hPa | 0 mm | 1.79 m/s, 85° | - | - |
| 1778003569 | 27.78° C | 39% | 1013.6 hPa | 0 mm | 2.24 m/s, 311° | - | - |
| 1778003265 | 27.78° C | 38% | 1013.7 hPa | 0 mm | 2.24 m/s, 293° | - | - |
| 1778002963 | 27.78° C | 37% | 1013.5 hPa | 0 mm | 3.13 m/s, 314° | - | - |
| 1778002658 | 27.78° C | 42% | 1013.6 hPa | 0 mm | 0.45 m/s, 29° | - | - |
| 1778002355 | 27.22° C | 41% | 1013.3 hPa | 0 mm | 0.89 m/s, 197° | - | - |
| 1778002052 | 27.22° C | 41% | 1013.7 hPa | 0 mm | 2.68 m/s, 51° | - | - |
| 1778001749 | 27.78° C | 41% | 1013.7 hPa | 0 mm | 1.34 m/s, 323° | - | - |
| 1778001449 | 27.22° C | 40% | 1013.9 hPa | 0 mm | 0.89 m/s, 306° | - | - |
| 1778001147 | 26.67° C | 44% | 1013.8 hPa | 0 mm | 0.89 m/s, 291° | - | - |
| 1778000843 | 27.22° C | 43% | 1013.7 hPa | 0 mm | 1.79 m/s, 96° | - | - |
| 1778000540 | 27.22° C | 43% | 1014 hPa | 0 mm | 0.89 m/s, 71° | - | - |
| 1778000235 | 26.67° C | 43% | 1014.3 hPa | 0 mm | 0.45 m/s, 222° | - | - |
| 1777999932 | 26.67° C | 43% | 1014.3 hPa | 0 mm | 0.45 m/s, 54° | - | - |
| 1777999627 | 27.22° C | 41% | 1014.2 hPa | 0 mm | 1.34 m/s, 29° | - | - |
| 1777999324 | 26.67° C | 41% | 1014.4 hPa | 0 mm | 0.89 m/s, 72° | - | - |
| 1777999023 | 26.67° C | 43% | 1014.5 hPa | 0 mm | 0.89 m/s, 96° | - | - |
| 1777998721 | 26.67° C | 43% | 1014.3 hPa | 0 mm | 0 m/s | - | - |
| 1777998418 | 26.67° C | 43% | 1014.3 hPa | 0 mm | 0.89 m/s, 54° | - | - |
| 1777998115 | 26.11° C | 44% | 1014.4 hPa | 0 mm | 0.89 m/s, 55° | - | - |
| 1777997812 | 26.11° C | 44% | 1014.6 hPa | 0 mm | 0.89 m/s, 116° | - | - |
| 1777997509 | 26.11° C | 44% | 1014.5 hPa | 0 mm | 1.79 m/s, 13° | - | - |
| 1777997207 | 25.56° C | 46% | 1014.7 hPa | 0 mm | 1.34 m/s, 223° | - | - |
| 1777996904 | 25.56° C | 45% | 1014.8 hPa | 0 mm | 2.24 m/s, 38° | - | - |
* Rain latest hour (hover to see other rain measurements)
** Current wind speed in m/s (hover to see current wind gust speed)